sensor_id;sensor_type;location;lat;lon;timestamp;pressure;altitude;pressure_sealevel;temperature;humidity
67052;BME280;53957;47.222;18.670;2023-03-25T06:33:24;99534.16;;;10.79;100.00
67052;BME280;53957;47.222;18.670;2023-03-25T06:37:05;99532.75;;;10.95;100.00
67052;BME280;53957;47.222;18.670;2023-03-25T06:40:09;99536.06;;;11.15;100.00
67052;BME280;53957;47.222;18.670;2023-03-25T06:43:13;99537.84;;;11.06;100.00
67052;BME280;53957;47.222;18.670;2023-03-25T06:46:17;99545.81;;;11.20;100.00
67052;BME280;53957;47.222;18.670;2023-03-25T06:49:24;99543.78;;;11.48;100.00
67052;BME280;53957;47.222;18.670;2023-03-25T06:52:28;99550.66;;;11.63;100.00
67052;BME280;53957;47.222;18.670;2023-03-25T06:55:33;99556.63;;;11.91;100.00
67052;BME280;53957;47.222;18.670;2023-03-25T06:58:35;99558.75;;;11.81;100.00
67052;BME280;53957;47.222;18.670;2023-03-25T07:01:58;99554.84;;;11.55;100.00
67052;BME280;53957;47.222;18.670;2023-03-25T07:05:21;99560.13;;;11.69;100.00
67052;BME280;53957;47.222;18.670;2023-03-25T07:08:45;99570.66;;;11.97;100.00
67052;BME280;53957;47.222;18.670;2023-03-25T07:12:32;99575.88;;;11.80;100.00
67052;BME280;53957;47.222;18.670;2023-03-25T07:15:57;99584.56;;;11.85;100.00
67052;BME280;53957;47.222;18.670;2023-03-25T07:19:20;99581.31;;;12.29;100.00
67052;BME280;53957;47.222;18.670;2023-03-25T07:22:43;99584.53;;;12.48;100.00
67052;BME280;53957;47.222;18.670;2023-03-25T07:25:46;99594.22;;;12.93;100.00
67052;BME280;53957;47.222;18.670;2023-03-25T07:28:56;99599.44;;;13.33;100.00
67052;BME280;53957;47.222;18.670;2023-03-25T07:32:05;99598.63;;;13.59;100.00
67052;BME280;53957;47.222;18.670;2023-03-25T07:35:29;99595.78;;;13.29;100.00
67052;BME280;53957;47.222;18.670;2023-03-25T07:38:41;99590.59;;;13.68;100.00
67052;BME280;53957;47.222;18.670;2023-03-25T07:41:46;99580.69;;;14.07;100.00
67052;BME280;53957;47.222;18.670;2023-03-25T07:44:54;99572.59;;;14.16;100.00
67052;BME280;53957;47.222;18.670;2023-03-25T07:48:00;99572.94;;;14.44;100.00
67052;BME280;53957;47.222;18.670;2023-03-25T07:51:04;99574.50;;;14.15;100.00
67052;BME280;53957;47.222;18.670;2023-03-25T07:54:08;99589.00;;;13.76;100.00
67052;BME280;53957;47.222;18.670;2023-03-25T07:57:19;99588.13;;;14.01;100.00
67052;BME280;53957;47.222;18.670;2023-03-25T08:00:47;99590.25;;;15.07;100.00
67052;BME280;53957;47.222;18.670;2023-03-25T08:03:50;99584.56;;;15.08;100.00
67052;BME280;53957;47.222;18.670;2023-03-25T08:06:54;99587.34;;;16.00;99.90
67052;BME280;53957;47.222;18.670;2023-03-25T08:09:57;99587.03;;;16.26;100.00
67052;BME280;53957;47.222;18.670;2023-03-25T08:13:01;99580.97;;;16.30;97.04
67052;BME280;53957;47.222;18.670;2023-03-25T08:16:10;99582.28;;;16.73;94.61
67052;BME280;53957;47.222;18.670;2023-03-25T08:19:14;99577.66;;;16.73;90.20
67052;BME280;53957;47.222;18.670;2023-03-25T08:22:18;99572.66;;;17.13;79.76
67052;BME280;53957;47.222;18.670;2023-03-25T08:25:41;99560.88;;;17.17;89.98
67052;BME280;53957;47.222;18.670;2023-03-25T08:28:44;99559.66;;;17.91;78.21
67052;BME280;53957;47.222;18.670;2023-03-25T08:31:49;99567.75;;;16.90;79.60
67052;BME280;53957;47.222;18.670;2023-03-25T08:34:54;99565.69;;;16.58;80.19
67052;BME280;53957;47.222;18.670;2023-03-25T08:37:57;99569.22;;;17.28;82.20
67052;BME280;53957;47.222;18.670;2023-03-25T08:41:03;99566.66;;;16.79;81.35
67052;BME280;53957;47.222;18.670;2023-03-25T08:44:06;99570.38;;;16.62;79.57
67052;BME280;53957;47.222;18.670;2023-03-25T08:47:09;99573.28;;;17.50;79.51
67052;BME280;53957;47.222;18.670;2023-03-25T08:50:12;99568.34;;;17.68;78.12
67052;BME280;53957;47.222;18.670;2023-03-25T08:53:15;99563.16;;;18.40;71.41
67052;BME280;53957;47.222;18.670;2023-03-25T08:56:19;99564.78;;;17.64;72.90
67052;BME280;53957;47.222;18.670;2023-03-25T08:59:23;99564.75;;;18.60;68.81
67052;BME280;53957;47.222;18.670;2023-03-25T09:02:25;99553.50;;;18.23;70.60
67052;BME280;53957;47.222;18.670;2023-03-25T09:05:32;99554.16;;;18.35;68.63
67052;BME280;53957;47.222;18.670;2023-03-25T09:08:35;99562.94;;;18.84;67.95
67052;BME280;53957;47.222;18.670;2023-03-25T09:11:39;99570.50;;;19.14;61.04
67052;BME280;53957;47.222;18.670;2023-03-25T09:14:42;99577.25;;;19.67;62.89
67052;BME280;53957;47.222;18.670;2023-03-25T09:17:48;99570.72;;;19.68;60.05
67052;BME280;53957;47.222;18.670;2023-03-25T09:20:57;99585.31;;;19.20;57.10
67052;BME280;53957;47.222;18.670;2023-03-25T09:24:01;99590.13;;;18.91;59.56
67052;BME280;53957;47.222;18.670;2023-03-25T09:27:04;99575.63;;;18.99;62.17
67052;BME280;53957;47.222;18.670;2023-03-25T09:30:08;99578.75;;;17.98;66.73
67052;BME280;53957;47.222;18.670;2023-03-25T09:33:12;99577.53;;;17.96;66.10
67052;BME280;53957;47.222;18.670;2023-03-25T09:36:15;99577.59;;;17.83;65.69
67052;BME280;53957;47.222;18.670;2023-03-25T09:39:18;99568.91;;;17.30;65.78
67052;BME280;53957;47.222;18.670;2023-03-25T09:45:47;99576.09;;;18.86;63.25
67052;BME280;53957;47.222;18.670;2023-03-25T09:48:55;99569.25;;;18.37;64.20
67052;BME280;53957;47.222;18.670;2023-03-25T09:52:03;99579.19;;;17.12;67.51
67052;BME280;53957;47.222;18.670;2023-03-25T09:55:10;99579.53;;;17.38;69.43
67052;BME280;53957;47.222;18.670;2023-03-25T09:59:08;99582.84;;;17.48;65.39
67052;BME280;53957;47.222;18.670;2023-03-25T10:02:03;99580.50;;;17.46;64.27
67052;BME280;53957;47.222;18.670;2023-03-25T10:11:36;99577.50;;;17.35;66.90
67052;BME280;53957;47.222;18.670;2023-03-25T10:18:35;99568.03;;;18.18;66.95
67052;BME280;53957;47.222;18.670;2023-03-25T10:25:04;99566.19;;;18.22;60.06
67052;BME280;53957;47.222;18.670;2023-03-25T10:28:17;99562.44;;;17.63;60.81
67052;BME280;53957;47.222;18.670;2023-03-25T10:31:52;99565.72;;;17.12;64.66
67052;BME280;53957;47.222;18.670;2023-03-25T10:34:55;99563.06;;;16.87;62.51
67052;BME280;53957;47.222;18.670;2023-03-25T10:38:22;99554.22;;;17.15;60.09
67052;BME280;53957;47.222;18.670;2023-03-25T10:41:30;99566.78;;;17.23;55.29
67052;BME280;53957;47.222;18.670;2023-03-25T10:44:37;99572.69;;;17.57;57.83
67052;BME280;53957;47.222;18.670;2023-03-25T10:47:43;99580.00;;;17.28;48.24
67052;BME280;53957;47.222;18.670;2023-03-25T10:54:26;99580.00;;;17.28;50.91
67052;BME280;53957;47.222;18.670;2023-03-25T10:57:38;99596.81;;;17.09;48.40
67052;BME280;53957;47.222;18.670;2023-03-25T11:00:42;99582.16;;;16.82;48.40
67052;BME280;53957;47.222;18.670;2023-03-25T11:03:53;99593.31;;;17.09;47.22
67052;BME280;53957;47.222;18.670;2023-03-25T11:06:58;99602.41;;;17.45;45.68
67052;BME280;53957;47.222;18.670;2023-03-25T11:13:29;99591.44;;;17.37;48.36
67052;BME280;53957;47.222;18.670;2023-03-25T11:16:35;99591.22;;;17.30;45.71
67052;BME280;53957;47.222;18.670;2023-03-25T11:20:16;99599.56;;;17.25;47.84
67052;BME280;53957;47.222;18.670;2023-03-25T11:23:33;99597.00;;;16.51;48.23
67052;BME280;53957;47.222;18.670;2023-03-25T11:31:19;99577.72;;;16.12;50.83
67052;BME280;53957;47.222;18.670;2023-03-25T11:34:26;99586.69;;;16.16;49.17
67052;BME280;53957;47.222;18.670;2023-03-25T11:37:30;99586.03;;;16.19;50.89
67052;BME280;53957;47.222;18.670;2023-03-25T11:40:49;99590.56;;;15.93;54.36
67052;BME280;53957;47.222;18.670;2023-03-25T11:43:54;99606.06;;;15.97;59.61
67052;BME280;53957;47.222;18.670;2023-03-25T11:47:01;99598.75;;;15.85;62.21
67052;BME280;53957;47.222;18.670;2023-03-25T11:50:06;99592.97;;;15.74;59.14
67052;BME280;53957;47.222;18.670;2023-03-25T11:53:13;99593.72;;;15.28;57.71
67052;BME280;53957;47.222;18.670;2023-03-25T11:56:21;99584.00;;;15.36;59.37
67052;BME280;53957;47.222;18.670;2023-03-25T11:59:38;99596.09;;;15.30;60.81
67052;BME280;53957;47.222;18.670;2023-03-25T12:02:44;99587.72;;;14.89;58.43
67052;BME280;53957;47.222;18.670;2023-03-25T12:06:01;99588.22;;;14.82;54.34
67052;BME280;53957;47.222;18.670;2023-03-25T12:09:08;99568.72;;;14.94;57.19
67052;BME280;53957;47.222;18.670;2023-03-25T12:19:18;99560.28;;;14.54;56.45
67052;BME280;53957;47.222;18.670;2023-03-25T12:39:26;99550.09;;;15.44;55.43
67052;BME280;53957;47.222;18.670;2023-03-25T12:46:54;99539.66;;;15.30;57.52
67052;BME280;53957;47.222;18.670;2023-03-25T12:52:42;99529.63;;;15.52;52.30
67052;BME280;53957;47.222;18.670;2023-03-25T13:03:07;99539.78;;;15.00;54.03
67052;BME280;53957;47.222;18.670;2023-03-25T13:09:34;99542.00;;;14.98;59.75
67052;BME280;53957;47.222;18.670;2023-03-25T13:12:42;99539.56;;;15.05;56.25
67052;BME280;53957;47.222;18.670;2023-03-25T13:15:56;99545.63;;;15.14;58.03
67052;BME280;53957;47.222;18.670;2023-03-25T13:19:12;99539.88;;;15.25;56.12
67052;BME280;53957;47.222;18.670;2023-03-25T13:22:26;99537.22;;;15.37;57.54
67052;BME280;53957;47.222;18.670;2023-03-25T13:32:37;99549.13;;;14.94;71.86
67052;BME280;53957;47.222;18.670;2023-03-25T13:36:23;99547.88;;;14.70;74.48
67052;BME280;53957;47.222;18.670;2023-03-25T13:39:43;99537.84;;;14.28;74.01
67052;BME280;53957;47.222;18.670;2023-03-25T13:46:11;99525.91;;;13.78;76.70
67052;BME280;53957;47.222;18.670;2023-03-25T13:49:27;99533.19;;;13.69;75.45
67052;BME280;53957;47.222;18.670;2023-03-25T13:52:37;99532.78;;;13.32;76.75
67052;BME280;53957;47.222;18.670;2023-03-25T13:55:50;99538.44;;;13.30;77.57
67052;BME280;53957;47.222;18.670;2023-03-25T14:15:51;99526.97;;;12.95;80.25
67052;BME280;53957;47.222;18.670;2023-03-25T14:19:07;99522.56;;;13.08;80.97
67052;BME280;53957;47.222;18.670;2023-03-25T14:22:15;99523.69;;;13.07;84.36
67052;BME280;53957;47.222;18.670;2023-03-25T14:25:32;99518.13;;;13.38;82.62
67052;BME280;53957;47.222;18.670;2023-03-25T14:28:38;99515.28;;;13.26;82.96
67052;BME280;53957;47.222;18.670;2023-03-25T14:31:58;99522.22;;;13.27;86.28
67052;BME280;53957;47.222;18.670;2023-03-25T14:38:51;99516.53;;;13.37;85.09
67052;BME280;53957;47.222;18.670;2023-03-25T14:42:01;99512.59;;;13.61;84.20
67052;BME280;53957;47.222;18.670;2023-03-25T14:51:49;99512.84;;;13.77;83.84
67052;BME280;53957;47.222;18.670;2023-03-25T14:55:04;99513.84;;;13.63;80.20
67052;BME280;53957;47.222;18.670;2023-03-25T14:58:23;99507.41;;;13.56;81.17
67052;BME280;53957;47.222;18.670;2023-03-25T15:01:32;99513.81;;;13.72;81.47
67052;BME280;53957;47.222;18.670;2023-03-25T15:04:37;99519.31;;;13.76;80.45
67052;BME280;53957;47.222;18.670;2023-03-25T15:11:13;99509.19;;;13.81;77.93
67052;BME280;53957;47.222;18.670;2023-03-25T15:14:23;99516.38;;;13.98;76.80
67052;BME280;53957;47.222;18.670;2023-03-25T15:20:46;99515.88;;;14.05;78.46
67052;BME280;53957;47.222;18.670;2023-03-25T15:52:02;99494.78;;;13.56;79.79
67052;BME280;53957;47.222;18.670;2023-03-25T15:55:13;99488.28;;;13.66;80.63
67052;BME280;53957;47.222;18.670;2023-03-25T16:01:30;99481.47;;;13.77;79.44
67052;BME280;53957;47.222;18.670;2023-03-25T16:04:38;99483.03;;;13.78;80.06
67052;BME280;53957;47.222;18.670;2023-03-25T16:07:42;99487.50;;;13.65;83.63
67052;BME280;53957;47.222;18.670;2023-03-25T16:10:47;99479.34;;;13.62;84.04
67052;BME280;53957;47.222;18.670;2023-03-25T16:14:04;99480.63;;;13.56;83.85
67052;BME280;53957;47.222;18.670;2023-03-25T16:17:10;99484.38;;;13.37;86.27
67052;BME280;53957;47.222;18.670;2023-03-25T16:20:16;99489.28;;;13.52;84.22
67052;BME280;53957;47.222;18.670;2023-03-25T16:23:21;99489.28;;;13.35;86.09
67052;BME280;53957;47.222;18.670;2023-03-25T16:26:43;99489.81;;;13.02;92.79
67052;BME280;53957;47.222;18.670;2023-03-25T16:29:48;99488.41;;;12.87;93.80
67052;BME280;53957;47.222;18.670;2023-03-25T16:32:51;99494.53;;;12.70;96.05
67052;BME280;53957;47.222;18.670;2023-03-25T16:39:12;99501.16;;;12.64;98.60
67052;BME280;53957;47.222;18.670;2023-03-25T16:45:26;99498.28;;;12.34;100.00
67052;BME280;53957;47.222;18.670;2023-03-25T16:48:35;99497.47;;;12.24;100.00
67052;BME280;53957;47.222;18.670;2023-03-25T16:51:39;99498.25;;;12.16;100.00
67052;BME280;53957;47.222;18.670;2023-03-25T16:57:48;99503.06;;;11.97;100.00
67052;BME280;53957;47.222;18.670;2023-03-25T17:00:54;99503.78;;;11.88;100.00
67052;BME280;53957;47.222;18.670;2023-03-25T17:04:17;99500.91;;;11.76;100.00
67052;BME280;53957;47.222;18.670;2023-03-25T17:07:26;99504.44;;;11.63;100.00
67052;BME280;53957;47.222;18.670;2023-03-25T17:10:46;99508.34;;;11.56;100.00
67052;BME280;53957;47.222;18.670;2023-03-25T17:13:53;99506.84;;;11.41;100.00
67052;BME280;53957;47.222;18.670;2023-03-25T17:20:39;99511.03;;;11.11;100.00
67052;BME280;53957;47.222;18.670;2023-03-25T17:24:22;99511.59;;;10.99;100.00
67052;BME280;53957;47.222;18.670;2023-03-25T17:27:33;99517.59;;;10.82;100.00
67052;BME280;53957;47.222;18.670;2023-03-25T17:30:44;99515.75;;;10.69;100.00
67052;BME280;53957;47.222;18.670;2023-03-25T17:33:50;99517.56;;;10.59;100.00
67052;BME280;53957;47.222;18.670;2023-03-25T17:36:59;99523.81;;;10.41;100.00
67052;BME280;53957;47.222;18.670;2023-03-25T17:40:05;99516.06;;;10.25;100.00
67052;BME280;53957;47.222;18.670;2023-03-25T17:43:18;99524.97;;;10.07;100.00
67052;BME280;53957;47.222;18.670;2023-03-25T17:46:45;99532.75;;;10.03;100.00
67052;BME280;53957;47.222;18.670;2023-03-25T17:50:19;99530.50;;;9.96;100.00
67052;BME280;53957;47.222;18.670;2023-03-25T17:53:45;99528.91;;;9.95;100.00
67052;BME280;53957;47.222;18.670;2023-03-25T17:56:52;99530.47;;;9.82;100.00
67052;BME280;53957;47.222;18.670;2023-03-25T17:59:55;99540.34;;;9.82;100.00
67052;BME280;53957;47.222;18.670;2023-03-25T18:03:19;99543.66;;;9.74;100.00
67052;BME280;53957;47.222;18.670;2023-03-25T18:06:27;99554.72;;;9.67;100.00
67052;BME280;53957;47.222;18.670;2023-03-25T18:09:31;99556.19;;;9.59;100.00
67052;BME280;53957;47.222;18.670;2023-03-25T18:12:34;99560.47;;;9.55;100.00
67052;BME280;53957;47.222;18.670;2023-03-25T18:15:37;99551.84;;;9.63;100.00
67052;BME280;53957;47.222;18.670;2023-03-25T18:18:42;99563.88;;;9.75;100.00
67052;BME280;53957;47.222;18.670;2023-03-25T18:21:46;99565.25;;;9.72;100.00
67052;BME280;53957;47.222;18.670;2023-03-25T18:24:49;99571.47;;;9.67;100.00
67052;BME280;53957;47.222;18.670;2023-03-25T18:28:13;99570.09;;;9.70;100.00
67052;BME280;53957;47.222;18.670;2023-03-25T18:31:16;99577.72;;;9.77;100.00
67052;BME280;53957;47.222;18.670;2023-03-25T18:34:20;99586.97;;;9.65;100.00
67052;BME280;53957;47.222;18.670;2023-03-25T18:37:27;99592.66;;;9.59;100.00
67052;BME280;53957;47.222;18.670;2023-03-25T18:40:35;99603.72;;;9.47;100.00
67052;BME280;53957;47.222;18.670;2023-03-25T18:43:40;99604.41;;;9.39;100.00
67052;BME280;53957;47.222;18.670;2023-03-25T18:46:43;99606.56;;;9.37;100.00
67052;BME280;53957;47.222;18.670;2023-03-25T18:49:53;99621.94;;;9.21;100.00
67052;BME280;53957;47.222;18.670;2023-03-25T18:52:58;99625.69;;;9.19;100.00
67052;BME280;53957;47.222;18.670;2023-03-25T18:56:22;99625.97;;;9.18;100.00
67052;BME280;53957;47.222;18.670;2023-03-25T18:59:26;99625.63;;;9.06;100.00
67052;BME280;53957;47.222;18.670;2023-03-25T19:02:31;99641.06;;;9.03;100.00
67052;BME280;53957;47.222;18.670;2023-03-25T19:05:34;99644.81;;;9.02;100.00
67052;BME280;53957;47.222;18.670;2023-03-25T19:08:41;99651.06;;;8.93;100.00
67052;BME280;53957;47.222;18.670;2023-03-25T19:11:46;99656.19;;;8.84;100.00
67052;BME280;53957;47.222;18.670;2023-03-25T19:14:51;99661.47;;;8.89;100.00
67052;BME280;53957;47.222;18.670;2023-03-25T19:17:57;99661.03;;;8.82;100.00
67052;BME280;53957;47.222;18.670;2023-03-25T19:21:03;99669.00;;;8.82;100.00
67052;BME280;53957;47.222;18.670;2023-03-25T19:24:07;99685.03;;;8.77;100.00
67052;BME280;53957;47.222;18.670;2023-03-25T19:27:11;99694.00;;;8.81;100.00
67052;BME280;53957;47.222;18.670;2023-03-25T19:30:20;99681.22;;;8.83;100.00
67052;BME280;53957;47.222;18.670;2023-03-25T19:33:24;99671.16;;;8.80;100.00
67052;BME280;53957;47.222;18.670;2023-03-25T19:36:27;99666.44;;;8.72;100.00
67052;BME280;53957;47.222;18.670;2023-03-25T19:39:36;99662.72;;;8.73;100.00
67052;BME280;53957;47.222;18.670;2023-03-25T19:42:40;99673.56;;;8.76;100.00
67052;BME280;53957;47.222;18.670;2023-03-25T19:45:44;99673.19;;;8.88;100.00
67052;BME280;53957;47.222;18.670;2023-03-25T19:48:46;99688.69;;;8.81;100.00
67052;BME280;53957;47.222;18.670;2023-03-25T19:51:50;99698.88;;;8.74;100.00
67052;BME280;53957;47.222;18.670;2023-03-25T19:54:53;99716.41;;;8.75;100.00
67052;BME280;53957;47.222;18.670;2023-03-25T19:58:00;99723.19;;;8.62;100.00
67052;BME280;53957;47.222;18.670;2023-03-25T20:01:04;99743.75;;;8.51;100.00
67052;BME280;53957;47.222;18.670;2023-03-25T20:04:48;99745.84;;;8.54;100.00
67052;BME280;53957;47.222;18.670;2023-03-25T20:07:51;99750.34;;;8.59;100.00
67052;BME280;53957;47.222;18.670;2023-03-25T20:10:58;99754.75;;;8.68;100.00
67052;BME280;53957;47.222;18.670;2023-03-25T20:14:04;99742.00;;;8.70;100.00
67052;BME280;53957;47.222;18.670;2023-03-25T20:18:12;99734.66;;;8.86;100.00
67052;BME280;53957;47.222;18.670;2023-03-25T20:22:05;99727.44;;;8.87;100.00
67052;BME280;53957;47.222;18.670;2023-03-25T20:26:17;99726.44;;;8.83;100.00
67052;BME280;53957;47.222;18.670;2023-03-25T20:37:28;99733.50;;;8.68;100.00
67052;BME280;53957;47.222;18.670;2023-03-25T20:40:31;99723.09;;;8.72;100.00
67052;BME280;53957;47.222;18.670;2023-03-25T20:43:48;99733.03;;;8.61;100.00
67052;BME280;53957;47.222;18.670;2023-03-25T20:46:52;99740.25;;;8.56;100.00
67052;BME280;53957;47.222;18.670;2023-03-25T20:50:13;99752.22;;;8.53;100.00
67052;BME280;53957;47.222;18.670;2023-03-25T20:53:38;99754.94;;;8.48;100.00
67052;BME280;53957;47.222;18.670;2023-03-25T20:56:43;99746.97;;;8.48;100.00
67052;BME280;53957;47.222;18.670;2023-03-25T20:59:48;99752.47;;;8.57;100.00
67052;BME280;53957;47.222;18.670;2023-03-25T21:03:14;99749.63;;;8.48;100.00
67052;BME280;53957;47.222;18.670;2023-03-25T21:06:43;99749.56;;;8.53;100.00
67052;BME280;53957;47.222;18.670;2023-03-25T21:09:48;99752.00;;;8.49;100.00
67052;BME280;53957;47.222;18.670;2023-03-25T21:13:12;99748.87;;;8.42;100.00
67052;BME280;53957;47.222;18.670;2023-03-25T21:16:35;99747.38;;;8.60;100.00
67052;BME280;53957;47.222;18.670;2023-03-25T21:19:41;99750.16;;;8.50;100.00
67052;BME280;53957;47.222;18.670;2023-03-25T21:22:44;99753.91;;;8.44;100.00
67052;BME280;53957;47.222;18.670;2023-03-25T21:26:11;99749.63;;;8.48;100.00
67052;BME280;53957;47.222;18.670;2023-03-25T21:29:26;99752.22;;;8.53;100.00
67052;BME280;53957;47.222;18.670;2023-03-25T21:32:31;99760.53;;;8.46;100.00
67052;BME280;53957;47.222;18.670;2023-03-25T21:35:54;99745.56;;;8.56;100.00
67052;BME280;53957;47.222;18.670;2023-03-25T21:39:29;99753.00;;;8.59;100.00
67052;BME280;53957;47.222;18.670;2023-03-25T21:43:12;99750.37;;;8.53;100.00
67052;BME280;53957;47.222;18.670;2023-03-25T21:46:55;99756.63;;;8.68;100.00
67052;BME280;53957;47.222;18.670;2023-03-25T21:49:59;99752.38;;;8.67;100.00
67052;BME280;53957;47.222;18.670;2023-03-25T21:53:17;99752.94;;;8.64;100.00
67052;BME280;53957;47.222;18.670;2023-03-25T21:56:40;99745.00;;;8.59;100.00
67052;BME280;53957;47.222;18.670;2023-03-25T21:59:50;99746.25;;;8.66;100.00
67052;BME280;53957;47.222;18.670;2023-03-25T22:02:59;99744.66;;;8.70;100.00
67052;BME280;53957;47.222;18.670;2023-03-25T22:06:08;99743.78;;;8.75;100.00
67052;BME280;53957;47.222;18.670;2023-03-25T22:09:13;99745.72;;;8.69;100.00
67052;BME280;53957;47.222;18.670;2023-03-25T22:12:37;99740.25;;;8.56;100.00
67052;BME280;53957;47.222;18.670;2023-03-25T22:15:41;99741.66;;;8.43;100.00
67052;BME280;53957;47.222;18.670;2023-03-25T22:19:06;99747.31;;;8.36;100.00
67052;BME280;53957;47.222;18.670;2023-03-25T22:22:29;99738.84;;;8.34;100.00
67052;BME280;53957;47.222;18.670;2023-03-25T22:25:52;99742.41;;;8.19;100.00
67052;BME280;53957;47.222;18.670;2023-03-25T22:29:31;99733.09;;;8.21;100.00
67052;BME280;53957;47.222;18.670;2023-03-25T22:32:35;99742.72;;;8.12;100.00
67052;BME280;53957;47.222;18.670;2023-03-25T22:36:03;99737.72;;;8.05;100.00
67052;BME280;53957;47.222;18.670;2023-03-25T22:39:12;99737.72;;;8.05;100.00
67052;BME280;53957;47.222;18.670;2023-03-25T22:42:19;99736.38;;;8.08;100.00
67052;BME280;53957;47.222;18.670;2023-03-25T22:45:43;99738.22;;;8.13;100.00
67052;BME280;53957;47.222;18.670;2023-03-25T22:48:47;99739.53;;;7.76;100.00
67052;BME280;53957;47.222;18.670;2023-03-25T22:52:10;99739.16;;;7.93;100.00
67052;BME280;53957;47.222;18.670;2023-03-25T22:55:14;99743.91;;;7.96;100.00
67052;BME280;53957;47.222;18.670;2023-03-25T22:58:28;99752.06;;;8.04;100.00
67052;BME280;53957;47.222;18.670;2023-03-25T23:01:32;99746.31;;;7.92;100.00
67052;BME280;53957;47.222;18.670;2023-03-25T23:05:17;99749.50;;;7.94;100.00
67052;BME280;53957;47.222;18.670;2023-03-25T23:08:21;99743.13;;;7.95;100.00
67052;BME280;53957;47.222;18.670;2023-03-25T23:11:36;99741.56;;;7.89;100.00
67052;BME280;53957;47.222;18.670;2023-03-25T23:14:42;99733.25;;;8.01;100.00
67052;BME280;53957;47.222;18.670;2023-03-25T23:17:47;99730.97;;;7.84;100.00
67052;BME280;53957;47.222;18.670;2023-03-25T23:20:54;99750.06;;;7.86;100.00
67052;BME280;53957;47.222;18.670;2023-03-25T23:24:01;99749.34;;;7.75;100.00
67052;BME280;53957;47.222;18.670;2023-03-25T23:27:34;99753.78;;;7.85;100.00
67052;BME280;53957;47.222;18.670;2023-03-25T23:30:43;99744.38;;;7.63;100.00
67052;BME280;53957;47.222;18.670;2023-03-25T23:33:49;99734.25;;;7.65;100.00
67052;BME280;53957;47.222;18.670;2023-03-25T23:36:53;99740.06;;;7.72;100.00
